METAR AND TAF INFORMATION
METAR FOR GCTS
ADDS - METARS form results

(0942 UTC 27 January 2021)
Data provider http://aviationweather.gov/metar/data/
 
METAR text: GCTS 270930Z 06009KT 9999 FEW030 19/14 Q1022 NOSIG
Conditions at: GCTS (TENERIFE SUR/REI, ES) observed 0930 UTC 27 January 2021
Temperature: 19.0°C (66°F)
Dewpoint: 14.0°C (57°F) [RH = 73%]
Pressure (altimeter): 30.18 inches Hg (1022.0 mb)
Winds: from the ENE (60 degrees) at 10 MPH (9 knots; 4.6 m/s)
Visibility: 6 or more miles (10+ km)
Ceiling: at least 12,000 feet AGL
Clouds: few clouds at 3000 feet AGL
Weather: no significant weather observed at this time

METAR text: GCTS 270900Z 04006KT 010V080 9999 FEW030 18/14 Q1022 NOSIG
Conditions at: GCTS (TENERIFE SUR/REI, ES) observed 0900 UTC 27 January 2021
Temperature: 18.0°C (64°F)
Dewpoint: 14.0°C (57°F) [RH = 77%]
Pressure (altimeter): 30.18 inches Hg (1022.0 mb)
Winds: from the NE (40 degrees) at 7 MPH (6 knots; 3.1 m/s)
Visibility: 6 or more miles (10+ km)
Ceiling: at least 12,000 feet AGL
Clouds: few clouds at 3000 feet AGL
Weather: no significant weather observed at this time

Forecast for: GCTS (TENERIFE SUR/REI, ES)
Text: TAF GCTS 270800Z 2709/2809 07011KT 9999 FEW030 TX25/2714Z TN18/2807Z
Forecast period: 0900 UTC 27 January 2021 to 0900 UTC 28 January 2021
Forecast type: FROM: standard forecast or significant change
Winds: from the ENE (70 degrees) at 13 MPH (11 knots; 5.7 m/s)
Visibility: 6 or more miles (10+ km)
Ceiling: at least 12,000 feet AGL
Clouds: few clouds at 3000 feet AGL
Weather: no significant weather forecast for this period

 AIRPORT MAP

 RUNWAY INFORMATION
Runway 08 Runway length 10499 ft Runway width 148 ft
Runway elevation 187 ft Runway displaced threshold 0 ft Runway heading 69
Runway 26 Runway length 10499 ft Runway width 148 ft
Runway elevation 209 ft Runway displaced threshold 0 ft Runway heading 249

 AIRPORT FREQUENCIES
Type APP Name APP Frequency 120.3 MHZ
Type ATIS Name ATIS Frequency 118.675 MHZ
Type GND Name GND Frequency 121.9 MHZ
Type TWR Name TWR Frequency 119 MHZ

 AIRPORT NEAR NAVIGATION AIDS
Type NDB Name Tenerife Sur Frequency 317 KHZ
Type VOR-DME Name Tenerife Sur Frequency 116400 KHZ



Powered by Virtual Airlines Manager [v2.6.2]